sensor_id;sensor_type;location;lat;lon;timestamp;temperature;humidity
4097;DHT22;2062;50.694;7.246;2023-02-01T00:00:57;6.20;74.90
4097;DHT22;2062;50.694;7.246;2023-02-01T00:03:23;6.20;75.00
4097;DHT22;2062;50.694;7.246;2023-02-01T00:05:55;6.20;74.90
4097;DHT22;2062;50.694;7.246;2023-02-01T00:08:23;6.30;75.00
4097;DHT22;2062;50.694;7.246;2023-02-01T00:10:59;6.20;74.80
4097;DHT22;2062;50.694;7.246;2023-02-01T00:13:28;6.20;74.70
4097;DHT22;2062;50.694;7.246;2023-02-01T00:16:02;6.20;74.70
4097;DHT22;2062;50.694;7.246;2023-02-01T00:18:29;6.20;74.80
4097;DHT22;2062;50.694;7.246;2023-02-01T00:20:56;6.20;74.80
4097;DHT22;2062;50.694;7.246;2023-02-01T00:23:23;6.20;74.70
4097;DHT22;2062;50.694;7.246;2023-02-01T00:25:49;6.20;74.80
4097;DHT22;2062;50.694;7.246;2023-02-01T00:28:18;6.20;74.70
4097;DHT22;2062;50.694;7.246;2023-02-01T00:30:44;6.10;74.70
4097;DHT22;2062;50.694;7.246;2023-02-01T00:33:11;6.30;74.70
4097;DHT22;2062;50.694;7.246;2023-02-01T00:35:38;6.10;74.60
4097;DHT22;2062;50.694;7.246;2023-02-01T00:38:05;6.20;74.60
4097;DHT22;2062;50.694;7.246;2023-02-01T00:40:31;6.20;74.50
4097;DHT22;2062;50.694;7.246;2023-02-01T00:42:58;6.10;74.60
4097;DHT22;2062;50.694;7.246;2023-02-01T00:45:26;6.10;74.50
4097;DHT22;2062;50.694;7.246;2023-02-01T00:47:53;6.10;74.50
4097;DHT22;2062;50.694;7.246;2023-02-01T00:50:20;6.10;74.30
4097;DHT22;2062;50.694;7.246;2023-02-01T00:52:46;6.10;74.30
4097;DHT22;2062;50.694;7.246;2023-02-01T00:55:13;6.10;74.20
4097;DHT22;2062;50.694;7.246;2023-02-01T00:57:40;6.10;74.20
4097;DHT22;2062;50.694;7.246;2023-02-01T01:00:08;6.10;74.00
4097;DHT22;2062;50.694;7.246;2023-02-01T01:02:36;6.10;73.90
4097;DHT22;2062;50.694;7.246;2023-02-01T01:05:03;6.10;73.80
4097;DHT22;2062;50.694;7.246;2023-02-01T01:07:30;6.10;73.70
4097;DHT22;2062;50.694;7.246;2023-02-01T01:09:57;6.10;73.70
4097;DHT22;2062;50.694;7.246;2023-02-01T01:12:24;6.20;73.50
4097;DHT22;2062;50.694;7.246;2023-02-01T01:14:50;6.10;73.40
4097;DHT22;2062;50.694;7.246;2023-02-01T01:17:17;6.10;73.30
4097;DHT22;2062;50.694;7.246;2023-02-01T01:19:45;6.20;73.20
4097;DHT22;2062;50.694;7.246;2023-02-01T01:22:12;6.10;73.10
4097;DHT22;2062;50.694;7.246;2023-02-01T01:24:38;6.10;73.00
4097;DHT22;2062;50.694;7.246;2023-02-01T01:27:05;6.10;72.90
4097;DHT22;2062;50.694;7.246;2023-02-01T01:29:32;6.10;72.80
4097;DHT22;2062;50.694;7.246;2023-02-01T01:31:59;6.10;72.70
4097;DHT22;2062;50.694;7.246;2023-02-01T01:34:26;6.10;72.50
4097;DHT22;2062;50.694;7.246;2023-02-01T01:36:54;6.10;72.50
4097;DHT22;2062;50.694;7.246;2023-02-01T01:39:20;6.10;72.30
4097;DHT22;2062;50.694;7.246;2023-02-01T01:41:47;6.20;72.20
4097;DHT22;2062;50.694;7.246;2023-02-01T01:47:18;6.00;72.00
4097;DHT22;2062;50.694;7.246;2023-02-01T01:49:45;6.00;72.00
4097;DHT22;2062;50.694;7.246;2023-02-01T01:52:13;6.00;71.80
4097;DHT22;2062;50.694;7.246;2023-02-01T01:54:43;6.00;71.70
4097;DHT22;2062;50.694;7.246;2023-02-01T01:57:14;6.00;71.60
4097;DHT22;2062;50.694;7.246;2023-02-01T01:59:45;5.90;71.50
4097;DHT22;2062;50.694;7.246;2023-02-01T02:02:13;6.00;71.60
4097;DHT22;2062;50.694;7.246;2023-02-01T02:04:40;6.00;71.50
4097;DHT22;2062;50.694;7.246;2023-02-01T02:07:10;6.00;71.50
4097;DHT22;2062;50.694;7.246;2023-02-01T02:09:39;6.00;71.50
4097;DHT22;2062;50.694;7.246;2023-02-01T02:12:08;6.00;71.50
4097;DHT22;2062;50.694;7.246;2023-02-01T02:14:35;5.90;71.30
4097;DHT22;2062;50.694;7.246;2023-02-01T02:17:11;5.90;71.30
4097;DHT22;2062;50.694;7.246;2023-02-01T02:20:09;5.90;71.20
4097;DHT22;2062;50.694;7.246;2023-02-01T02:22:55;5.90;71.30
4097;DHT22;2062;50.694;7.246;2023-02-01T02:25:45;5.90;71.10
4097;DHT22;2062;50.694;7.246;2023-02-01T02:28:30;6.00;71.20
4097;DHT22;2062;50.694;7.246;2023-02-01T02:31:20;5.90;71.20
4097;DHT22;2062;50.694;7.246;2023-02-01T02:34:04;5.80;71.00
4097;DHT22;2062;50.694;7.246;2023-02-01T02:36:39;5.80;71.00
4097;DHT22;2062;50.694;7.246;2023-02-01T02:39:18;5.90;71.10
4097;DHT22;2062;50.694;7.246;2023-02-01T02:41:52;5.80;71.10
4097;DHT22;2062;50.694;7.246;2023-02-01T02:44:47;5.80;71.10
4097;DHT22;2062;50.694;7.246;2023-02-01T02:47:36;5.80;71.10
4097;DHT22;2062;50.694;7.246;2023-02-01T02:50:15;5.90;71.10
4097;DHT22;2062;50.694;7.246;2023-02-01T02:53:07;5.80;71.00
4097;DHT22;2062;50.694;7.246;2023-02-01T02:55:54;5.80;71.00
4097;DHT22;2062;50.694;7.246;2023-02-01T02:58:39;5.80;71.10
4097;DHT22;2062;50.694;7.246;2023-02-01T03:01:24;5.80;71.00
4097;DHT22;2062;50.694;7.246;2023-02-01T03:04:08;5.80;71.00
4097;DHT22;2062;50.694;7.246;2023-02-01T03:06:38;5.80;71.10
4097;DHT22;2062;50.694;7.246;2023-02-01T03:09:10;5.80;71.10
4097;DHT22;2062;50.694;7.246;2023-02-01T03:11:40;5.80;71.10
4097;DHT22;2062;50.694;7.246;2023-02-01T03:14:29;5.80;71.00
4097;DHT22;2062;50.694;7.246;2023-02-01T03:16:59;5.80;71.10
4097;DHT22;2062;50.694;7.246;2023-02-01T03:19:34;5.80;71.10
4097;DHT22;2062;50.694;7.246;2023-02-01T03:22:05;5.80;70.90
4097;DHT22;2062;50.694;7.246;2023-02-01T03:24:37;5.80;70.90
4097;DHT22;2062;50.694;7.246;2023-02-01T03:27:08;5.80;70.90
4097;DHT22;2062;50.694;7.246;2023-02-01T03:29:41;5.80;70.90
4097;DHT22;2062;50.694;7.246;2023-02-01T03:32:09;5.80;70.90
4097;DHT22;2062;50.694;7.246;2023-02-01T03:34:36;5.80;70.80
4097;DHT22;2062;50.694;7.246;2023-02-01T03:37:06;5.80;70.80
4097;DHT22;2062;50.694;7.246;2023-02-01T03:39:38;5.80;70.80
4097;DHT22;2062;50.694;7.246;2023-02-01T03:42:10;5.80;70.70
4097;DHT22;2062;50.694;7.246;2023-02-01T03:44:43;5.80;70.70
4097;DHT22;2062;50.694;7.246;2023-02-01T03:47:15;5.80;70.70
4097;DHT22;2062;50.694;7.246;2023-02-01T03:49:47;5.80;70.70
4097;DHT22;2062;50.694;7.246;2023-02-01T03:52:20;5.80;70.70
4097;DHT22;2062;50.694;7.246;2023-02-01T03:54:49;5.80;70.70
4097;DHT22;2062;50.694;7.246;2023-02-01T03:57:20;5.80;70.60
4097;DHT22;2062;50.694;7.246;2023-02-01T03:59:48;5.80;70.50
4097;DHT22;2062;50.694;7.246;2023-02-01T04:02:16;5.80;70.50
4097;DHT22;2062;50.694;7.246;2023-02-01T04:04:43;5.80;70.50
4097;DHT22;2062;50.694;7.246;2023-02-01T04:07:09;5.80;70.40
4097;DHT22;2062;50.694;7.246;2023-02-01T04:09:37;5.90;70.60
4097;DHT22;2062;50.694;7.246;2023-02-01T04:12:04;5.80;70.50
4097;DHT22;2062;50.694;7.246;2023-02-01T04:14:31;5.90;70.50
4097;DHT22;2062;50.694;7.246;2023-02-01T04:16:58;5.90;70.50
4097;DHT22;2062;50.694;7.246;2023-02-01T04:19:25;5.90;70.40
4097;DHT22;2062;50.694;7.246;2023-02-01T04:21:51;5.90;70.40
4097;DHT22;2062;50.694;7.246;2023-02-01T04:24:18;5.90;70.30
4097;DHT22;2062;50.694;7.246;2023-02-01T04:26:46;5.90;70.30
4097;DHT22;2062;50.694;7.246;2023-02-01T04:29:13;5.90;70.30
4097;DHT22;2062;50.694;7.246;2023-02-01T04:31:40;5.90;71.00
4097;DHT22;2062;50.694;7.246;2023-02-01T04:34:06;5.80;70.10
4097;DHT22;2062;50.694;7.246;2023-02-01T04:36:33;5.80;70.00
4097;DHT22;2062;50.694;7.246;2023-02-01T04:39:00;5.80;69.90
4097;DHT22;2062;50.694;7.246;2023-02-01T04:41:27;5.80;69.80
4097;DHT22;2062;50.694;7.246;2023-02-01T04:43:55;5.80;69.80
4097;DHT22;2062;50.694;7.246;2023-02-01T04:46:22;5.80;69.90
4097;DHT22;2062;50.694;7.246;2023-02-01T04:48:49;5.80;69.80
4097;DHT22;2062;50.694;7.246;2023-02-01T04:51:16;5.70;69.70
4097;DHT22;2062;50.694;7.246;2023-02-01T04:53:44;5.70;69.70
4097;DHT22;2062;50.694;7.246;2023-02-01T04:56:11;5.70;69.80
4097;DHT22;2062;50.694;7.246;2023-02-01T04:58:39;5.70;69.70
4097;DHT22;2062;50.694;7.246;2023-02-01T05:01:07;5.70;69.70
4097;DHT22;2062;50.694;7.246;2023-02-01T05:03:34;5.60;69.60
4097;DHT22;2062;50.694;7.246;2023-02-01T05:06:01;5.60;69.50
4097;DHT22;2062;50.694;7.246;2023-02-01T05:08:29;5.60;69.50
4097;DHT22;2062;50.694;7.246;2023-02-01T05:10:56;5.60;69.60
4097;DHT22;2062;50.694;7.246;2023-02-01T05:13:24;5.60;69.50
4097;DHT22;2062;50.694;7.246;2023-02-01T05:16:10;5.60;69.40
4097;DHT22;2062;50.694;7.246;2023-02-01T05:18:36;5.50;69.30
4097;DHT22;2062;50.694;7.246;2023-02-01T05:21:03;5.50;69.40
4097;DHT22;2062;50.694;7.246;2023-02-01T05:23:30;5.50;69.30
4097;DHT22;2062;50.694;7.246;2023-02-01T05:26:01;5.50;69.10
4097;DHT22;2062;50.694;7.246;2023-02-01T05:28:28;5.40;68.90
4097;DHT22;2062;50.694;7.246;2023-02-01T05:30:54;5.40;69.00
4097;DHT22;2062;50.694;7.246;2023-02-01T05:33:23;5.40;69.00
4097;DHT22;2062;50.694;7.246;2023-02-01T05:35:49;5.40;68.90
4097;DHT22;2062;50.694;7.246;2023-02-01T05:38:16;5.40;68.80
4097;DHT22;2062;50.694;7.246;2023-02-01T05:40:43;5.40;68.80
4097;DHT22;2062;50.694;7.246;2023-02-01T05:43:14;5.30;68.80
4097;DHT22;2062;50.694;7.246;2023-02-01T05:45:41;5.30;68.80
4097;DHT22;2062;50.694;7.246;2023-02-01T05:48:08;5.30;68.80
4097;DHT22;2062;50.694;7.246;2023-02-01T05:50:37;5.30;68.80
4097;DHT22;2062;50.694;7.246;2023-02-01T05:53:04;5.30;68.80
4097;DHT22;2062;50.694;7.246;2023-02-01T05:55:30;5.20;68.60
4097;DHT22;2062;50.694;7.246;2023-02-01T05:57:57;5.20;68.70
4097;DHT22;2062;50.694;7.246;2023-02-01T06:00:24;5.10;68.70
4097;DHT22;2062;50.694;7.246;2023-02-01T06:02:51;5.10;68.70
4097;DHT22;2062;50.694;7.246;2023-02-01T06:05:18;5.10;68.60
4097;DHT22;2062;50.694;7.246;2023-02-01T06:07:46;5.10;68.60
4097;DHT22;2062;50.694;7.246;2023-02-01T06:10:13;5.10;68.60
4097;DHT22;2062;50.694;7.246;2023-02-01T06:12:40;5.10;68.60
4097;DHT22;2062;50.694;7.246;2023-02-01T06:15:08;5.00;68.60
4097;DHT22;2062;50.694;7.246;2023-02-01T06:17:34;5.00;68.50
4097;DHT22;2062;50.694;7.246;2023-02-01T06:20:01;5.00;68.50
4097;DHT22;2062;50.694;7.246;2023-02-01T06:22:29;5.00;68.50
4097;DHT22;2062;50.694;7.246;2023-02-01T06:24:57;5.00;68.60
4097;DHT22;2062;50.694;7.246;2023-02-01T06:27:24;4.90;68.60
4097;DHT22;2062;50.694;7.246;2023-02-01T06:29:52;4.90;68.70
4097;DHT22;2062;50.694;7.246;2023-02-01T06:32:20;4.90;68.70
4097;DHT22;2062;50.694;7.246;2023-02-01T06:34:48;4.90;68.80
4097;DHT22;2062;50.694;7.246;2023-02-01T06:37:15;4.90;68.80
4097;DHT22;2062;50.694;7.246;2023-02-01T06:39:42;4.90;68.90
4097;DHT22;2062;50.694;7.246;2023-02-01T06:42:10;4.90;68.90
4097;DHT22;2062;50.694;7.246;2023-02-01T06:44:37;4.90;68.90
4097;DHT22;2062;50.694;7.246;2023-02-01T06:47:04;4.90;68.90
4097;DHT22;2062;50.694;7.246;2023-02-01T06:49:31;5.00;68.80
4097;DHT22;2062;50.694;7.246;2023-02-01T06:51:57;4.90;68.90
4097;DHT22;2062;50.694;7.246;2023-02-01T06:54:25;4.90;68.90
4097;DHT22;2062;50.694;7.246;2023-02-01T06:56:52;5.00;68.90
4097;DHT22;2062;50.694;7.246;2023-02-01T06:59:20;5.00;69.00
4097;DHT22;2062;50.694;7.246;2023-02-01T07:01:47;5.00;68.90
4097;DHT22;2062;50.694;7.246;2023-02-01T07:04:14;5.00;69.00
4097;DHT22;2062;50.694;7.246;2023-02-01T07:06:40;5.00;69.00
4097;DHT22;2062;50.694;7.246;2023-02-01T07:09:07;5.00;68.90
4097;DHT22;2062;50.694;7.246;2023-02-01T07:11:34;5.10;69.10
4097;DHT22;2062;50.694;7.246;2023-02-01T07:14:02;5.00;69.00
4097;DHT22;2062;50.694;7.246;2023-02-01T07:16:31;5.10;69.10
4097;DHT22;2062;50.694;7.246;2023-02-01T07:18:57;5.10;69.10
4097;DHT22;2062;50.694;7.246;2023-02-01T07:21:25;5.10;69.10
4097;DHT22;2062;50.694;7.246;2023-02-01T07:23:53;5.10;69.10
4097;DHT22;2062;50.694;7.246;2023-02-01T07:26:20;5.20;69.20
4097;DHT22;2062;50.694;7.246;2023-02-01T07:28:47;5.20;69.20
4097;DHT22;2062;50.694;7.246;2023-02-01T07:31:16;5.10;69.10
4097;DHT22;2062;50.694;7.246;2023-02-01T07:33:45;5.20;69.20
4097;DHT22;2062;50.694;7.246;2023-02-01T07:36:15;5.20;69.20
4097;DHT22;2062;50.694;7.246;2023-02-01T07:38:42;5.20;69.10
4097;DHT22;2062;50.694;7.246;2023-02-01T07:41:09;5.30;69.20
4097;DHT22;2062;50.694;7.246;2023-02-01T07:43:36;5.20;69.10
4097;DHT22;2062;50.694;7.246;2023-02-01T07:46:04;5.30;69.30
4097;DHT22;2062;50.694;7.246;2023-02-01T07:48:31;5.30;69.20
4097;DHT22;2062;50.694;7.246;2023-02-01T07:51:02;5.30;69.30
4097;DHT22;2062;50.694;7.246;2023-02-01T07:53:30;5.30;69.30
4097;DHT22;2062;50.694;7.246;2023-02-01T07:55:57;5.30;69.30
4097;DHT22;2062;50.694;7.246;2023-02-01T07:58:24;5.30;69.30
4097;DHT22;2062;50.694;7.246;2023-02-01T08:00:52;5.30;69.30
4097;DHT22;2062;50.694;7.246;2023-02-01T08:03:45;5.40;69.20
4097;DHT22;2062;50.694;7.246;2023-02-01T08:06:13;5.40;69.20
4097;DHT22;2062;50.694;7.246;2023-02-01T08:08:40;5.40;69.30
4097;DHT22;2062;50.694;7.246;2023-02-01T08:11:07;5.40;69.20
4097;DHT22;2062;50.694;7.246;2023-02-01T08:13:34;5.50;69.40
4097;DHT22;2062;50.694;7.246;2023-02-01T08:16:03;5.50;69.50
4097;DHT22;2062;50.694;7.246;2023-02-01T08:18:31;5.50;69.90
4097;DHT22;2062;50.694;7.246;2023-02-01T08:21:02;5.50;69.40
4097;DHT22;2062;50.694;7.246;2023-02-01T08:23:32;5.50;69.40
4097;DHT22;2062;50.694;7.246;2023-02-01T08:26:05;5.50;69.20
4097;DHT22;2062;50.694;7.246;2023-02-01T08:28:32;5.50;69.30
4097;DHT22;2062;50.694;7.246;2023-02-01T08:31:03;5.60;69.10
4097;DHT22;2062;50.694;7.246;2023-02-01T08:33:30;5.60;69.00
4097;DHT22;2062;50.694;7.246;2023-02-01T08:35:57;5.60;69.10
4097;DHT22;2062;50.694;7.246;2023-02-01T08:38:23;5.60;69.10
4097;DHT22;2062;50.694;7.246;2023-02-01T08:40:52;5.60;69.00
4097;DHT22;2062;50.694;7.246;2023-02-01T08:43:18;5.70;69.10
4097;DHT22;2062;50.694;7.246;2023-02-01T08:45:45;5.60;68.90
4097;DHT22;2062;50.694;7.246;2023-02-01T08:48:12;5.70;69.20
4097;DHT22;2062;50.694;7.246;2023-02-01T08:50:39;5.70;69.10
4097;DHT22;2062;50.694;7.246;2023-02-01T08:53:05;5.70;69.10
4097;DHT22;2062;50.694;7.246;2023-02-01T08:55:32;5.70;69.10
4097;DHT22;2062;50.694;7.246;2023-02-01T08:58:00;5.70;69.10
4097;DHT22;2062;50.694;7.246;2023-02-01T09:00:27;5.70;69.00
4097;DHT22;2062;50.694;7.246;2023-02-01T09:02:55;5.80;69.00
4097;DHT22;2062;50.694;7.246;2023-02-01T09:05:22;5.80;69.10
4097;DHT22;2062;50.694;7.246;2023-02-01T09:07:52;5.80;69.00
4097;DHT22;2062;50.694;7.246;2023-02-01T09:10:19;5.80;68.80
4097;DHT22;2062;50.694;7.246;2023-02-01T09:12:45;5.90;69.10
4097;DHT22;2062;50.694;7.246;2023-02-01T09:15:14;5.90;69.00
4097;DHT22;2062;50.694;7.246;2023-02-01T09:17:40;5.90;69.00
4097;DHT22;2062;50.694;7.246;2023-02-01T09:20:10;5.90;68.80
4097;DHT22;2062;50.694;7.246;2023-02-01T09:22:37;6.00;68.90
4097;DHT22;2062;50.694;7.246;2023-02-01T09:25:04;6.10;68.80
4097;DHT22;2062;50.694;7.246;2023-02-01T09:27:31;6.00;68.80
4097;DHT22;2062;50.694;7.246;2023-02-01T09:29:58;6.00;68.70
4097;DHT22;2062;50.694;7.246;2023-02-01T09:32:26;6.00;68.60
4097;DHT22;2062;50.694;7.246;2023-02-01T09:34:53;6.00;68.50
4097;DHT22;2062;50.694;7.246;2023-02-01T09:37:19;6.10;68.70
4097;DHT22;2062;50.694;7.246;2023-02-01T09:39:46;6.10;68.80
4097;DHT22;2062;50.694;7.246;2023-02-01T09:42:26;6.10;68.90
4097;DHT22;2062;50.694;7.246;2023-02-01T09:45:24;6.10;68.70
4097;DHT22;2062;50.694;7.246;2023-02-01T09:47:59;6.20;68.80
4097;DHT22;2062;50.694;7.246;2023-02-01T09:50:32;6.20;68.80
4097;DHT22;2062;50.694;7.246;2023-02-01T09:53:02;6.20;68.40
4097;DHT22;2062;50.694;7.246;2023-02-01T09:55:39;6.20;68.50
4097;DHT22;2062;50.694;7.246;2023-02-01T09:58:22;6.20;68.40
4097;DHT22;2062;50.694;7.246;2023-02-01T10:00:52;6.20;68.50
4097;DHT22;2062;50.694;7.246;2023-02-01T10:03:24;6.20;68.40
4097;DHT22;2062;50.694;7.246;2023-02-01T10:06:24;6.30;68.30
4097;DHT22;2062;50.694;7.246;2023-02-01T10:09:04;6.30;68.10
4097;DHT22;2062;50.694;7.246;2023-02-01T10:11:42;6.30;67.90
4097;DHT22;2062;50.694;7.246;2023-02-01T10:14:41;6.30;68.00
4097;DHT22;2062;50.694;7.246;2023-02-01T10:17:21;6.30;68.20
4097;DHT22;2062;50.694;7.246;2023-02-01T10:19:56;6.30;68.10
4097;DHT22;2062;50.694;7.246;2023-02-01T10:22:34;6.30;68.10
4097;DHT22;2062;50.694;7.246;2023-02-01T10:25:08;6.30;68.20
4097;DHT22;2062;50.694;7.246;2023-02-01T10:27:39;6.30;68.10
4097;DHT22;2062;50.694;7.246;2023-02-01T10:30:18;6.30;67.70
4097;DHT22;2062;50.694;7.246;2023-02-01T10:32:48;6.30;67.80
4097;DHT22;2062;50.694;7.246;2023-02-01T10:35:20;6.30;67.90
4097;DHT22;2062;50.694;7.246;2023-02-01T10:37:48;6.30;67.90
4097;DHT22;2062;50.694;7.246;2023-02-01T10:40:18;6.40;67.90
4097;DHT22;2062;50.694;7.246;2023-02-01T10:42:47;6.40;68.00
4097;DHT22;2062;50.694;7.246;2023-02-01T10:45:17;6.50;68.10
4097;DHT22;2062;50.694;7.246;2023-02-01T10:47:45;6.40;67.90
4097;DHT22;2062;50.694;7.246;2023-02-01T10:50:25;6.50;67.90
4097;DHT22;2062;50.694;7.246;2023-02-01T10:52:59;6.50;67.90
4097;DHT22;2062;50.694;7.246;2023-02-01T10:55:34;6.50;67.90
4097;DHT22;2062;50.694;7.246;2023-02-01T10:58:04;6.60;67.90
4097;DHT22;2062;50.694;7.246;2023-02-01T11:00:41;6.60;68.20
4097;DHT22;2062;50.694;7.246;2023-02-01T11:06:16;6.70;68.60
4097;DHT22;2062;50.694;7.246;2023-02-01T11:08:49;6.70;68.70
4097;DHT22;2062;50.694;7.246;2023-02-01T11:11:16;6.80;68.70
4097;DHT22;2062;50.694;7.246;2023-02-01T11:13:43;6.90;68.80
4097;DHT22;2062;50.694;7.246;2023-02-01T11:16:13;7.00;68.80
4097;DHT22;2062;50.694;7.246;2023-02-01T11:18:41;7.10;68.90
4097;DHT22;2062;50.694;7.246;2023-02-01T11:21:09;7.10;68.40
4097;DHT22;2062;50.694;7.246;2023-02-01T11:23:42;7.20;68.40
4097;DHT22;2062;50.694;7.246;2023-02-01T11:26:12;7.20;68.40
4097;DHT22;2062;50.694;7.246;2023-02-01T11:28:44;7.30;68.30
4097;DHT22;2062;50.694;7.246;2023-02-01T11:31:12;7.40;67.80
4097;DHT22;2062;50.694;7.246;2023-02-01T11:33:47;7.40;67.90
4097;DHT22;2062;50.694;7.246;2023-02-01T11:36:16;7.40;67.10
4097;DHT22;2062;50.694;7.246;2023-02-01T11:38:52;7.50;67.50
4097;DHT22;2062;50.694;7.246;2023-02-01T11:41:22;7.50;66.40
4097;DHT22;2062;50.694;7.246;2023-02-01T11:43:55;7.50;66.40
4097;DHT22;2062;50.694;7.246;2023-02-01T11:46:26;7.60;66.70
4097;DHT22;2062;50.694;7.246;2023-02-01T11:48:55;7.60;67.50
4097;DHT22;2062;50.694;7.246;2023-02-01T11:51:34;7.60;65.90
4097;DHT22;2062;50.694;7.246;2023-02-01T11:54:12;7.60;65.60
4097;DHT22;2062;50.694;7.246;2023-02-01T11:56:47;7.60;65.30
4097;DHT22;2062;50.694;7.246;2023-02-01T11:59:31;7.60;64.90
4097;DHT22;2062;50.694;7.246;2023-02-01T12:02:19;7.60;65.80
4097;DHT22;2062;50.694;7.246;2023-02-01T12:05:05;7.60;65.50
4097;DHT22;2062;50.694;7.246;2023-02-01T12:07:47;7.60;65.20
4097;DHT22;2062;50.694;7.246;2023-02-01T12:10:26;7.50;65.20
4097;DHT22;2062;50.694;7.246;2023-02-01T12:13:06;7.60;65.30
4097;DHT22;2062;50.694;7.246;2023-02-01T12:15:46;7.60;65.40
4097;DHT22;2062;50.694;7.246;2023-02-01T12:18:33;7.60;65.10
4097;DHT22;2062;50.694;7.246;2023-02-01T12:21:18;7.60;66.00
4097;DHT22;2062;50.694;7.246;2023-02-01T12:24:15;7.60;62.60
4097;DHT22;2062;50.694;7.246;2023-02-01T12:26:53;7.50;63.80
4097;DHT22;2062;50.694;7.246;2023-02-01T12:29:40;7.50;63.60
4097;DHT22;2062;50.694;7.246;2023-02-01T12:32:26;7.50;63.70
4097;DHT22;2062;50.694;7.246;2023-02-01T12:35:05;7.50;63.90
4097;DHT22;2062;50.694;7.246;2023-02-01T12:37:54;7.50;64.00
4097;DHT22;2062;50.694;7.246;2023-02-01T12:40:39;7.50;63.60
4097;DHT22;2062;50.694;7.246;2023-02-01T12:43:15;7.50;63.70
4097;DHT22;2062;50.694;7.246;2023-02-01T12:45:52;7.40;63.20
4097;DHT22;2062;50.694;7.246;2023-02-01T12:48:25;7.50;63.60
4097;DHT22;2062;50.694;7.246;2023-02-01T12:50:56;7.40;63.70
4097;DHT22;2062;50.694;7.246;2023-02-01T12:53:28;7.40;63.70
4097;DHT22;2062;50.694;7.246;2023-02-01T12:56:00;7.40;63.80
4097;DHT22;2062;50.694;7.246;2023-02-01T12:58:33;7.40;64.00
4097;DHT22;2062;50.694;7.246;2023-02-01T13:01:06;7.40;63.70
4097;DHT22;2062;50.694;7.246;2023-02-01T13:03:38;7.40;63.50
4097;DHT22;2062;50.694;7.246;2023-02-01T13:06:09;7.40;63.30
4097;DHT22;2062;50.694;7.246;2023-02-01T13:08:42;7.40;63.20
4097;DHT22;2062;50.694;7.246;2023-02-01T13:11:13;7.40;63.50
4097;DHT22;2062;50.694;7.246;2023-02-01T13:13:52;7.40;63.20
4097;DHT22;2062;50.694;7.246;2023-02-01T13:16:24;7.40;62.80
4097;DHT22;2062;50.694;7.246;2023-02-01T13:18:57;7.40;63.20
4097;DHT22;2062;50.694;7.246;2023-02-01T13:21:30;7.40;63.10
4097;DHT22;2062;50.694;7.246;2023-02-01T13:23:58;7.40;63.00
4097;DHT22;2062;50.694;7.246;2023-02-01T13:26:25;7.40;63.00
4097;DHT22;2062;50.694;7.246;2023-02-01T13:28:57;7.40;63.20
4097;DHT22;2062;50.694;7.246;2023-02-01T13:31:50;7.40;63.10
4097;DHT22;2062;50.694;7.246;2023-02-01T13:34:34;7.40;62.90
4097;DHT22;2062;50.694;7.246;2023-02-01T13:37:18;7.40;62.80
4097;DHT22;2062;50.694;7.246;2023-02-01T13:39:55;7.40;62.50
4097;DHT22;2062;50.694;7.246;2023-02-01T13:42:27;7.40;62.20
4097;DHT22;2062;50.694;7.246;2023-02-01T13:44:59;7.40;62.30
4097;DHT22;2062;50.694;7.246;2023-02-01T13:47:30;7.40;62.30
4097;DHT22;2062;50.694;7.246;2023-02-01T13:50:02;7.30;62.50
4097;DHT22;2062;50.694;7.246;2023-02-01T13:52:38;7.30;62.70
4097;DHT22;2062;50.694;7.246;2023-02-01T13:55:25;7.30;62.80
4097;DHT22;2062;50.694;7.246;2023-02-01T13:58:06;7.30;63.00
4097;DHT22;2062;50.694;7.246;2023-02-01T14:00:39;7.30;63.20
4097;DHT22;2062;50.694;7.246;2023-02-01T14:03:10;7.30;63.30
4097;DHT22;2062;50.694;7.246;2023-02-01T14:09:12;7.20;63.50
4097;DHT22;2062;50.694;7.246;2023-02-01T14:11:42;7.20;63.70
4097;DHT22;2062;50.694;7.246;2023-02-01T14:14:42;7.20;63.70
4097;DHT22;2062;50.694;7.246;2023-02-01T14:17:41;7.10;63.60
4097;DHT22;2062;50.694;7.246;2023-02-01T14:23:27;7.10;63.60
4097;DHT22;2062;50.694;7.246;2023-02-01T14:26:12;7.00;63.70
4097;DHT22;2062;50.694;7.246;2023-02-01T14:28:44;7.00;63.70
4097;DHT22;2062;50.694;7.246;2023-02-01T14:34:23;7.00;63.40
4097;DHT22;2062;50.694;7.246;2023-02-01T14:36:56;6.90;63.70
4097;DHT22;2062;50.694;7.246;2023-02-01T14:39:33;6.90;63.80
4097;DHT22;2062;50.694;7.246;2023-02-01T14:42:04;6.90;63.70
4097;DHT22;2062;50.694;7.246;2023-02-01T14:44:34;6.90;63.60
4097;DHT22;2062;50.694;7.246;2023-02-01T14:50:26;6.90;63.60
4097;DHT22;2062;50.694;7.246;2023-02-01T14:53:17;6.90;63.70
4097;DHT22;2062;50.694;7.246;2023-02-01T14:55:48;6.90;63.50
4097;DHT22;2062;50.694;7.246;2023-02-01T14:58:23;6.90;63.60
4097;DHT22;2062;50.694;7.246;2023-02-01T15:00:54;6.90;63.70
4097;DHT22;2062;50.694;7.246;2023-02-01T15:03:36;6.90;63.80
4097;DHT22;2062;50.694;7.246;2023-02-01T15:06:22;6.90;63.60
4097;DHT22;2062;50.694;7.246;2023-02-01T15:08:52;6.90;63.50
4097;DHT22;2062;50.694;7.246;2023-02-01T15:11:21;6.90;63.70
4097;DHT22;2062;50.694;7.246;2023-02-01T15:13:49;6.90;63.70
4097;DHT22;2062;50.694;7.246;2023-02-01T15:16:17;7.00;63.70
4097;DHT22;2062;50.694;7.246;2023-02-01T15:18:44;6.90;63.70
4097;DHT22;2062;50.694;7.246;2023-02-01T15:21:20;6.90;63.50
4097;DHT22;2062;50.694;7.246;2023-02-01T15:23:47;7.00;63.10
4097;DHT22;2062;50.694;7.246;2023-02-01T15:26:26;7.00;63.50
4097;DHT22;2062;50.694;7.246;2023-02-01T15:28:53;7.00;63.40
4097;DHT22;2062;50.694;7.246;2023-02-01T15:31:32;7.00;63.40
4097;DHT22;2062;50.694;7.246;2023-02-01T15:34:00;7.00;63.50
4097;DHT22;2062;50.694;7.246;2023-02-01T15:36:28;7.00;63.40
4097;DHT22;2062;50.694;7.246;2023-02-01T15:39:18;7.00;63.20
4097;DHT22;2062;50.694;7.246;2023-02-01T15:41:52;7.00;63.50
4097;DHT22;2062;50.694;7.246;2023-02-01T15:44:29;7.10;63.50
4097;DHT22;2062;50.694;7.246;2023-02-01T15:46:57;7.00;63.50
4097;DHT22;2062;50.694;7.246;2023-02-01T15:49:27;7.10;63.30
4097;DHT22;2062;50.694;7.246;2023-02-01T15:51:57;7.10;63.40
4097;DHT22;2062;50.694;7.246;2023-02-01T15:54:26;7.10;63.40
4097;DHT22;2062;50.694;7.246;2023-02-01T15:56:57;7.10;63.40
4097;DHT22;2062;50.694;7.246;2023-02-01T15:59:29;7.10;63.20
4097;DHT22;2062;50.694;7.246;2023-02-01T16:01:57;7.10;63.10
4097;DHT22;2062;50.694;7.246;2023-02-01T16:04:25;7.10;63.10
4097;DHT22;2062;50.694;7.246;2023-02-01T16:06:54;7.10;63.30
4097;DHT22;2062;50.694;7.246;2023-02-01T16:09:24;7.20;63.50
4097;DHT22;2062;50.694;7.246;2023-02-01T16:11:56;7.10;63.60
4097;DHT22;2062;50.694;7.246;2023-02-01T16:14:24;7.20;64.00
4097;DHT22;2062;50.694;7.246;2023-02-01T16:16:51;7.10;64.20
4097;DHT22;2062;50.694;7.246;2023-02-01T16:19:18;7.10;64.60
4097;DHT22;2062;50.694;7.246;2023-02-01T16:21:46;7.10;65.60
4097;DHT22;2062;50.694;7.246;2023-02-01T16:24:13;7.10;65.00
4097;DHT22;2062;50.694;7.246;2023-02-01T16:26:41;7.10;65.10
4097;DHT22;2062;50.694;7.246;2023-02-01T16:29:08;7.10;65.20
4097;DHT22;2062;50.694;7.246;2023-02-01T16:31:37;7.10;65.30
4097;DHT22;2062;50.694;7.246;2023-02-01T16:34:05;7.10;65.40
4097;DHT22;2062;50.694;7.246;2023-02-01T16:36:32;7.00;65.40
4097;DHT22;2062;50.694;7.246;2023-02-01T16:38:59;7.00;65.70
4097;DHT22;2062;50.694;7.246;2023-02-01T16:41:28;7.00;65.80
4097;DHT22;2062;50.694;7.246;2023-02-01T16:43:56;7.00;65.90
4097;DHT22;2062;50.694;7.246;2023-02-01T16:46:25;7.00;65.90
4097;DHT22;2062;50.694;7.246;2023-02-01T16:48:53;7.00;66.10
4097;DHT22;2062;50.694;7.246;2023-02-01T16:51:21;6.90;66.30
4097;DHT22;2062;50.694;7.246;2023-02-01T16:53:49;6.90;66.50
4097;DHT22;2062;50.694;7.246;2023-02-01T16:56:17;6.90;66.70
4097;DHT22;2062;50.694;7.246;2023-02-01T16:58:44;6.90;66.70
4097;DHT22;2062;50.694;7.246;2023-02-01T17:01:15;6.90;66.80
4097;DHT22;2062;50.694;7.246;2023-02-01T17:03:42;6.80;67.20